Hlavní strana
METAR-TAF:

METAR-TAF

Letiště :

Cervia, Itálie

zeměpisná šířka: 44-13N, zeměpisná délka: 012-18E, výška: 6 m

Aktuální stav počasí

Zpráva byla vytvořena před 1 hodinou a 14 minutami, v 04:55 UTC
Západní vítr 6 kt
Teplota 2°C
Vlhkost vzduchu 87%
Tlak 1016 hPa
Viditelnost 10 km a více
Polojasno ve výšce 5000 ft

METAR: LIPC 130455Z 27006KT 9999 SCT050 02/M00 Q1016 RMK BKN SCT090 VIS MIN 9999 WIND THR11 27005KT WIND THR29 27005KT BLU

Čas: 07:09 (06:09 UTC)

Předpověď počasí

Zpráva byla vytvořena před 1 hodinou a 9 minutami, v 05:00 UTC
Předpověď platná od 13 v 06 UTC do 13 v 15 UTC
Západní vítr 6 kt
Viditelnost 10 km a více
Polojasno ve výšce 2000 ft
Oblačno až skoro zataženo ve výšce 5000 ft
Dočasný
od 13 v 09 UTC do 13 v 15 UTC
déšť

TAF: LIPC 130500Z 1306/1315 28006KT 9999 SCT020 BKN050 TEMPO 1309/1315 RA

Stav a předpovědi počasí z více než 4 000 letišť (zprávy METAR a TAF).

Červené a žluté tečky na mapě představují dostupné meteorologické stanice.

Když kurzor umístíte na tečku, zobrazí se název stanice.

Pak kliknutím zobrazíte stav a předpověď počasí.

Chcete-li změnit mapu, kliknutím na zelené tlačítko se znaménkem +mapu přiblížíte, kliknutím na zelené tlačítko se znaménkem – mapu oddálíte a kliknutím na zelené šipky přejdete na sousední mapy.


METAR-TAF: